Time;durP1;ratioP1;P1;durP2;ratioP2;P2;SDS_P1;SDS_P2;PMS_P1;PMS_P2;Temp;Humidity;BMP_temperature;BMP_pressure;BME280_temperature;BME280_humidity;BME280_pressure;Samples;Min_cycle;Max_cycle;Signal;HPM_P1;HPM_P2
2021/10/26 00:00:40;;;;;;;37.45;16.45;;;;;;;10.53;100.00;101760.38;4931469;28;20093;-69
2021/10/26 00:03:07;;;;;;;32.33;15.73;;;;;;;10.51;100.00;101755.03;4929695;28;20320;-69
2021/10/26 00:05:35;;;;;;;31.20;15.80;;;;;;;10.45;100.00;101761.38;4931839;28;20066;-71
2021/10/26 00:08:03;;;;;;;30.73;14.95;;;;;;;10.46;100.00;101764.91;4931407;28;20107;-71
2021/10/26 00:10:31;;;;;;;28.05;13.98;;;;;;;10.43;100.00;101768.50;4931665;28;20129;-71
2021/10/26 00:13:00;;;;;;;33.63;16.33;;;;;;;10.42;100.00;101769.44;4932647;28;20090;-70
2021/10/26 00:15:28;;;;;;;29.42;14.35;;;;;;;10.42;100.00;101765.84;4931819;28;20089;-71
2021/10/26 00:17:56;;;;;;;36.20;14.90;;;;;;;10.38;100.00;101769.50;4926873;28;20054;-71
2021/10/26 00:20:24;;;;;;;31.85;14.52;;;;;;;10.38;100.00;101774.84;4930562;28;20052;-71
2021/10/26 00:22:52;;;;;;;25.00;12.77;;;;;;;10.38;100.00;101773.03;4934050;28;20047;-69
2021/10/26 00:25:20;;;;;;;30.50;13.88;;;;;;;10.43;100.00;101770.31;4931382;28;20051;-71
2021/10/26 00:27:48;;;;;;;23.52;11.75;;;;;;;10.38;100.00;101774.84;4927658;28;20066;-71
2021/10/26 00:30:17;;;;;;;30.92;13.60;;;;;;;10.35;100.00;101769.53;4934266;28;20141;-71
2021/10/26 00:32:45;;;;;;;24.88;12.55;;;;;;;10.36;100.00;101777.53;4931872;28;20106;-71
2021/10/26 00:35:14;;;;;;;29.42;12.48;;;;;;;10.40;100.00;101781.03;4931399;28;20090;-71
2021/10/26 00:37:44;;;;;;;28.35;12.95;;;;;;;10.38;100.00;101781.03;4928540;28;20095;-71
2021/10/26 00:40:14;;;;;;;27.83;12.07;;;;;;;10.33;100.00;101777.56;4934905;28;20151;-71
2021/10/26 00:42:42;;;;;;;25.92;12.93;;;;;;;10.34;100.00;101783.81;4931159;28;20055;-71
2021/10/26 00:45:10;;;;;;;24.60;11.73;;;;;;;10.30;100.00;101788.28;4932424;28;20055;-71
2021/10/26 00:47:39;;;;;;;28.60;13.38;;;;;;;10.26;100.00;101786.53;4922246;28;20054;-70
2021/10/26 00:50:08;;;;;;;23.13;12.13;;;;;;;10.20;100.00;101789.28;4932152;28;20224;-70
2021/10/26 00:52:37;;;;;;;25.10;11.88;;;;;;;10.22;100.00;101792.84;4931618;28;20050;-70
2021/10/26 00:55:06;;;;;;;25.75;11.02;;;;;;;10.19;100.00;101799.09;4931204;28;20054;-69
2021/10/26 00:57:34;;;;;;;25.83;12.13;;;;;;;10.23;100.00;101798.16;4931807;28;20093;-71
2021/10/26 01:00:02;;;;;;;28.92;12.55;;;;;;;10.15;100.00;101797.38;4931710;28;20153;-70
2021/10/26 01:02:30;;;;;;;23.20;11.48;;;;;;;10.17;100.00;101792.03;4931243;28;20051;-70
2021/10/26 01:04:59;;;;;;;25.88;11.07;;;;;;;10.19;100.00;101795.56;4930287;28;20557;-70
2021/10/26 01:07:27;;;;;;;20.95;10.82;;;;;;;10.22;100.00;101798.19;4929422;28;20071;-70
2021/10/26 01:09:55;;;;;;;21.80;10.50;;;;;;;10.16;100.00;101803.59;4931123;28;20149;-70
2021/10/26 01:12:23;;;;;;;29.10;11.35;;;;;;;10.14;100.00;101798.28;4929281;28;20169;-70
2021/10/26 01:14:51;;;;;;;29.73;11.35;;;;;;;10.05;100.00;101799.31;4927847;28;20133;-70
2021/10/26 01:17:19;;;;;;;22.23;9.95;;;;;;;10.00;100.00;101792.28;4933856;28;20059;-70
2021/10/26 01:19:49;;;;;;;23.98;11.20;;;;;;;9.93;100.00;101802.16;4931808;28;20188;-70
2021/10/26 01:22:19;;;;;;;24.17;9.77;;;;;;;9.90;100.00;101794.19;4929878;28;20130;-70
2021/10/26 01:24:48;;;;;;;24.30;10.40;;;;;;;9.85;100.00;101788.91;4931720;28;20066;-70
2021/10/26 01:27:16;;;;;;;23.63;10.52;;;;;;;9.80;100.00;101784.56;4930805;28;20184;-70
2021/10/26 01:29:45;;;;;;;19.40;10.13;;;;;;;9.73;100.00;101787.31;4929595;28;20137;-71
2021/10/26 01:32:15;;;;;;;18.98;9.20;;;;;;;9.67;100.00;101799.81;4929137;28;20102;-70
2021/10/26 01:34:43;;;;;;;22.73;10.05;;;;;;;9.59;100.00;101794.59;4932198;28;20047;-70
2021/10/26 01:37:13;;;;;;;25.98;9.85;;;;;;;9.51;100.00;101799.16;4931914;28;20055;-70
2021/10/26 01:39:41;;;;;;;18.92;9.45;;;;;;;9.49;100.00;101798.28;4935056;28;20134;-67
2021/10/26 01:42:10;;;;;;;22.23;10.50;;;;;;;9.47;100.00;101790.31;4928994;28;20143;-67
2021/10/26 01:44:38;;;;;;;22.35;11.07;;;;;;;9.49;100.00;101793.84;4930679;28;20231;-68
2021/10/26 01:47:06;;;;;;;26.58;12.00;;;;;;;9.46;100.00;101795.66;4929818;28;20082;-68
2021/10/26 01:49:34;;;;;;;24.88;12.40;;;;;;;9.34;100.00;101786.91;4929659;28;20059;-68
2021/10/26 01:52:03;;;;;;;26.90;13.05;;;;;;;9.38;100.00;101793.09;4938917;23;20496;-67
2021/10/26 01:54:36;;;;;;;26.33;12.68;;;;;;;9.31;100.00;101804.69;4910151;29;20123;-68
2021/10/26 01:57:04;;;;;;;27.95;12.75;;;;;;;9.26;100.00;101801.22;4916186;29;20166;-68
2021/10/26 01:59:33;;;;;;;28.40;13.77;;;;;;;9.31;100.00;101799.38;4909419;29;20065;-68
2021/10/26 02:02:02;;;;;;;25.33;12.93;;;;;;;9.29;100.00;101810.03;4917548;29;20083;-68
2021/10/26 02:04:31;;;;;;;37.03;14.00;;;;;;;9.19;100.00;101813.72;4917592;29;20052;-68
2021/10/26 02:06:58;;;;;;;27.58;13.65;;;;;;;9.16;100.00;101809.31;4911819;29;20129;-68
2021/10/26 02:09:26;;;;;;;29.92;13.10;;;;;;;9.20;100.00;101809.28;4914546;29;20520;-68
2021/10/26 02:11:55;;;;;;;29.80;14.80;;;;;;;9.15;100.00;101806.66;4905506;29;20051;-68
2021/10/26 02:14:23;;;;;;;30.63;13.32;;;;;;;9.12;100.00;101809.34;4910327;29;20146;-70
2021/10/26 02:16:51;;;;;;;29.08;14.05;;;;;;;9.18;100.00;101806.63;4916067;29;20138;-70
2021/10/26 02:19:19;;;;;;;32.97;14.88;;;;;;;9.15;100.00;101809.31;4917569;29;20484;-70
2021/10/26 02:21:47;;;;;;;31.98;15.15;;;;;;;9.12;100.00;101812.88;4917123;29;20066;-70
2021/10/26 02:24:14;;;;;;;35.75;15.95;;;;;;;9.20;100.00;101804.84;4910958;29;20075;-70
2021/10/26 02:26:42;;;;;;;35.70;14.75;;;;;;;9.15;100.00;101817.31;4915403;29;20382;-70
2021/10/26 02:29:11;;;;;;;30.52;14.73;;;;;;;9.14;100.00;101807.56;4909523;29;20059;-70
2021/10/26 02:31:39;;;;;;;32.85;16.20;;;;;;;9.18;100.00;101808.41;4916261;29;20567;-70
2021/10/26 02:34:07;;;;;;;37.33;15.57;;;;;;;9.16;100.00;101811.09;4909206;29;20055;-70
2021/10/26 02:36:36;;;;;;;34.78;14.57;;;;;;;9.08;100.00;101816.50;4915538;29;20142;-70
2021/10/26 02:39:05;;;;;;;34.33;14.68;;;;;;;9.06;100.00;101818.28;4909811;29;20052;-70
2021/10/26 02:41:33;;;;;;;35.42;14.90;;;;;;;9.05;100.00;101815.66;4916684;29;20792;-70
2021/10/26 02:44:01;;;;;;;30.42;14.55;;;;;;;8.98;100.00;101829.00;4908365;29;20063;-69
2021/10/26 02:46:30;;;;;;;32.13;15.38;;;;;;;8.95;100.00;101828.16;4917161;29;20123;-70
2021/10/26 02:48:58;;;;;;;29.05;13.13;;;;;;;8.89;100.00;101825.56;4915813;29;20522;-70
2021/10/26 02:51:26;;;;;;;33.92;14.55;;;;;;;8.92;100.00;101829.09;4910262;29;20056;-70
2021/10/26 02:53:54;;;;;;;33.53;14.43;;;;;;;8.87;100.00;101835.31;4912351;29;20059;-70
2021/10/26 02:56:21;;;;;;;36.35;15.85;;;;;;;8.86;100.00;101836.25;4909211;29;20056;-70
2021/10/26 02:58:49;;;;;;;37.05;13.90;;;;;;;8.84;100.00;101838.03;4906324;29;20051;-70
2021/10/26 03:01:18;;;;;;;28.85;13.38;;;;;;;8.84;100.00;101838.03;4909972;29;20504;-70
2021/10/26 03:03:48;;;;;;;28.73;13.20;;;;;;;8.78;100.00;101828.31;4910630;29;20473;-70
2021/10/26 03:06:15;;;;;;;33.40;13.05;;;;;;;8.76;100.00;101830.97;4907527;29;20412;-70
2021/10/26 03:08:48;;;;;;;27.58;12.45;;;;;;;8.77;100.00;101827.44;4916429;29;20043;-70
2021/10/26 03:11:16;;;;;;;32.65;14.27;;;;;;;8.81;100.00;101830.94;4915245;29;20411;-70
2021/10/26 03:13:43;;;;;;;28.80;13.60;;;;;;;8.76;100.00;101830.97;4912547;29;20427;-70
2021/10/26 03:16:11;;;;;;;29.73;11.30;;;;;;;8.74;100.00;101818.59;4914637;29;21151;-71
2021/10/26 03:18:39;;;;;;;28.38;12.18;;;;;;;8.74;100.00;101815.94;4900350;29;20056;-71
2021/10/26 03:21:08;;;;;;;25.08;11.98;;;;;;;8.83;100.00;101821.16;4914891;29;20438;-70
2021/10/26 03:23:36;;;;;;;23.40;11.20;;;;;;;8.72;100.00;101817.75;4908931;29;20054;-70
2021/10/26 03:26:04;;;;;;;24.90;11.75;;;;;;;8.70;100.00;101809.78;4914048;29;20567;-71
2021/10/26 03:28:32;;;;;;;25.73;11.05;;;;;;;8.66;100.00;101818.66;4913003;29;20504;-71
2021/10/26 03:31:03;;;;;;;30.98;11.88;;;;;;;8.74;100.00;101818.59;4911562;29;20062;-71
2021/10/26 03:33:31;;;;;;;32.53;12.43;;;;;;;8.74;100.00;101823.94;4913975;29;20043;-71
2021/10/26 03:36:00;;;;;;;25.63;12.77;;;;;;;8.73;100.00;101823.03;4909007;29;20054;-71
2021/10/26 03:38:29;;;;;;;27.10;11.15;;;;;;;8.74;100.00;101826.59;4915096;29;20056;-71
2021/10/26 03:40:57;;;;;;;23.17;11.35;;;;;;;8.70;100.00;101815.09;4907332;29;20067;-70
2021/10/26 03:43:25;;;;;;;24.05;10.45;;;;;;;8.71;100.00;101819.50;4915616;29;20487;-71
2021/10/26 03:45:52;;;;;;;26.08;11.80;;;;;;;8.67;100.00;101830.22;4907220;29;20148;-70
2021/10/26 03:48:20;;;;;;;29.50;12.73;;;;;;;8.65;100.00;101834.63;4913826;29;20146;-70
2021/10/26 03:50:48;;;;;;;27.42;12.05;;;;;;;8.73;100.00;101835.47;4913501;29;20067;-71
2021/10/26 03:53:16;;;;;;;32.83;12.40;;;;;;;8.79;100.00;101833.63;4908014;29;20460;-71
2021/10/26 03:55:46;;;;;;;26.88;12.02;;;;;;;8.78;100.00;101836.28;4906380;29;20411;-71
2021/10/26 03:58:13;;;;;;;28.52;11.32;;;;;;;8.75;100.00;101847.88;4913504;29;20051;-71
2021/10/26 04:00:41;;;;;;;31.98;11.85;;;;;;;8.85;100.00;101842.44;4908660;29;20052;-73
2021/10/26 04:03:09;;;;;;;30.35;13.18;;;;;;;8.90;100.00;101843.28;4913132;29;20425;-69
2021/10/26 04:05:45;;;;;;;31.27;12.48;;;;;;;8.77;100.00;101840.75;4914657;29;20340;-70
2021/10/26 04:08:23;;;;;;;32.80;13.75;;;;;;;8.78;100.00;101847.84;4910631;29;20051;-70
2021/10/26 04:10:54;;;;;;;29.33;14.00;;;;;;;8.76;100.00;101844.28;4915058;29;20090;-72
2021/10/26 04:13:24;;;;;;;32.03;13.18;;;;;;;8.73;100.00;101848.75;4915053;29;20055;-70
2021/10/26 04:15:54;;;;;;;30.50;14.57;;;;;;;8.79;100.00;101844.28;4908541;29;20139;-69
2021/10/26 04:18:23;;;;;;;35.95;15.57;;;;;;;8.75;100.00;101846.97;4913510;29;20076;-72
2021/10/26 04:20:52;;;;;;;42.72;17.38;;;;;;;8.72;100.00;101849.69;4908931;29;20162;-72
2021/10/26 04:23:20;;;;;;;34.88;13.70;;;;;;;8.77;100.00;101850.53;4915967;29;20139;-72
2021/10/26 04:25:49;;;;;;;35.35;15.13;;;;;;;8.77;100.00;101846.06;4908850;29;20631;-72
2021/10/26 04:28:19;;;;;;;32.90;14.82;;;;;;;8.78;100.00;101854.94;4915538;29;20131;-71
2021/10/26 04:30:47;;;;;;;37.38;14.98;;;;;;;8.70;100.00;101846.13;4909190;29;20086;-68
2021/10/26 04:33:15;;;;;;;32.35;14.63;;;;;;;8.73;100.00;101851.41;4914037;29;20056;-68
2021/10/26 04:35:43;;;;;;;37.10;15.30;;;;;;;8.71;100.00;101858.53;4916042;29;20047;-68
2021/10/26 04:38:11;;;;;;;34.60;14.73;;;;;;;8.73;100.00;101870.06;4909530;29;20051;-68
2021/10/26 04:40:39;;;;;;;43.92;15.85;;;;;;;8.72;100.00;101870.97;4912803;29;20172;-70
2021/10/26 04:43:07;;;;;;;33.08;15.45;;;;;;;8.64;100.00;101865.69;4908055;29;20498;-70
2021/10/26 04:45:36;;;;;;;32.80;14.52;;;;;;;8.58;100.00;101869.28;4913254;29;20582;-70
2021/10/26 04:48:04;;;;;;;34.35;15.63;;;;;;;8.65;100.00;101861.25;4907926;29;20340;-70
2021/10/26 04:50:33;;;;;;;30.17;14.88;;;;;;;8.61;100.00;101865.69;4912370;29;20166;-70
2021/10/26 04:53:00;;;;;;;28.88;14.63;;;;;;;8.59;100.00;101862.19;4907377;29;20500;-70
2021/10/26 04:55:28;;;;;;;29.80;14.57;;;;;;;8.51;100.00;101864.00;4914444;29;20174;-70
2021/10/26 04:57:56;;;;;;;37.05;15.80;;;;;;;8.51;100.00;101872.88;4912069;29;20051;-70
2021/10/26 05:00:29;;;;;;;31.80;14.70;;;;;;;8.48;100.00;101886.22;4907148;29;20056;-68
2021/10/26 05:02:58;;;;;;;41.40;15.80;;;;;;;8.44;100.00;101887.09;4905876;29;20071;-71
2021/10/26 05:05:26;;;;;;;35.72;14.63;;;;;;;8.42;100.00;101886.19;4914427;29;20135;-71
2021/10/26 05:07:54;;;;;;;34.05;14.02;;;;;;;8.38;100.00;101879.16;4915384;29;20057;-70
2021/10/26 05:10:22;;;;;;;26.90;13.75;;;;;;;8.33;100.00;101887.16;4906915;29;20146;-71
2021/10/26 05:12:49;;;;;;;34.90;15.50;;;;;;;8.35;100.00;101882.69;4916156;29;20139;-71
2021/10/26 05:15:17;;;;;;;26.55;13.43;;;;;;;8.31;100.00;101894.25;4905694;29;20231;-72
2021/10/26 05:17:45;;;;;;;31.77;14.43;;;;;;;8.36;100.00;101889.78;4912388;29;20448;-72
2021/10/26 05:20:17;;;;;;;31.50;13.20;;;;;;;8.27;100.00;101897.81;4913186;29;20147;-71
2021/10/26 05:22:45;;;;;;;37.33;14.63;;;;;;;8.30;100.00;101900.47;4907185;29;20111;-71
2021/10/26 05:25:13;;;;;;;29.90;14.00;;;;;;;8.29;100.00;101896.06;4906079;29;20062;-72
2021/10/26 05:27:42;;;;;;;28.95;12.40;;;;;;;8.28;100.00;101901.38;4915716;29;20138;-72
2021/10/26 05:30:11;;;;;;;30.60;13.10;;;;;;;8.25;100.00;101902.25;4917455;29;20567;-70
2021/10/26 05:32:39;;;;;;;29.30;13.82;;;;;;;8.23;100.00;101906.72;4911934;29;20161;-71
2021/10/26 05:35:08;;;;;;;33.00;12.50;;;;;;;8.20;100.00;101915.56;4916323;29;20615;-70
2021/10/26 05:37:37;;;;;;;28.00;13.23;;;;;;;8.17;100.00;101917.34;4916099;29;20130;-70
2021/10/26 05:40:07;;;;;;;28.67;13.23;;;;;;;8.13;100.00;101921.81;4913179;29;20170;-70
2021/10/26 05:42:35;;;;;;;34.50;13.40;;;;;;;8.18;100.00;101925.34;4916867;29;20134;-70
2021/10/26 05:45:03;;;;;;;30.98;13.05;;;;;;;8.14;100.00;101930.66;4910727;29;20169;-70
2021/10/26 05:47:30;;;;;;;31.55;13.98;;;;;;;8.12;100.00;101927.13;4915963;29;20062;-71
2021/10/26 05:49:58;;;;;;;27.52;11.75;;;;;;;8.06;100.00;101933.38;4911389;29;20067;-71
2021/10/26 05:52:26;;;;;;;28.05;12.27;;;;;;;8.04;100.00;101935.16;4913847;29;20294;-71
2021/10/26 05:54:55;;;;;;;28.00;13.95;;;;;;;7.96;100.00;101929.84;4909419;29;20349;-71
2021/10/26 05:57:23;;;;;;;24.08;12.60;;;;;;;8.01;100.00;101935.16;4914030;29;20500;-70
2021/10/26 05:59:51;;;;;;;30.67;14.10;;;;;;;8.13;100.00;101918.28;4915900;29;20043;-71
2021/10/26 06:02:18;;;;;;;30.45;13.85;;;;;;;8.15;100.00;101917.38;4910355;29;20055;-71
2021/10/26 06:04:46;;;;;;;31.55;13.75;;;;;;;8.11;100.00;101915.63;4915467;29;20055;-70
2021/10/26 06:07:14;;;;;;;31.13;13.48;;;;;;;8.08;100.00;101923.59;4911049;29;20142;-71
2021/10/26 06:09:41;;;;;;;33.20;14.23;;;;;;;8.16;100.00;101910.28;4915966;29;20052;-71
2021/10/26 06:12:17;;;;;;;31.55;15.82;;;;;;;8.17;100.00;101912.94;4909563;29;20179;-70
2021/10/26 06:14:45;;;;;;;32.40;15.50;;;;;;;8.16;100.00;101915.63;4917473;29;20071;-71
2021/10/26 06:17:12;;;;;;;33.83;14.93;;;;;;;8.12;100.00;101921.81;4909987;29;20055;-71
2021/10/26 06:19:40;;;;;;;32.17;13.45;;;;;;;8.06;100.00;101919.22;4914653;29;20075;-71
2021/10/26 06:22:08;;;;;;;27.83;11.65;;;;;;;8.04;100.00;101919.22;4916348;29;20375;-70
2021/10/26 06:24:35;;;;;;;29.67;12.50;;;;;;;8.15;100.00;101913.84;4911247;29;20065;-70
2021/10/26 06:27:03;;;;;;;27.90;11.88;;;;;;;8.12;100.00;101922.72;4909451;29;20150;-70
2021/10/26 06:29:32;;;;;;;27.52;14.38;;;;;;;8.11;100.00;101926.25;4918641;29;20519;-70
2021/10/26 06:32:00;;;;;;;28.27;13.13;;;;;;;8.13;100.00;101932.44;4912618;29;21562;-70
2021/10/26 06:34:28;;;;;;;31.90;13.43;;;;;;;8.11;100.00;101928.91;4910773;29;23183;-72
2021/10/26 06:36:56;;;;;;;27.38;12.00;;;;;;;8.14;100.00;101922.69;4914662;29;20162;-69
2021/10/26 06:39:23;;;;;;;28.60;13.10;;;;;;;8.21;100.00;101924.44;4907385;29;20062;-69
2021/10/26 06:41:53;;;;;;;32.17;14.85;;;;;;;8.20;100.00;101930.66;4905554;29;20107;-69
2021/10/26 06:44:21;;;;;;;27.65;13.75;;;;;;;8.21;100.00;101946.59;4906765;29;20056;-70
2021/10/26 06:46:50;;;;;;;32.28;13.98;;;;;;;8.23;100.00;101947.47;4913264;29;20495;-71
2021/10/26 06:49:18;;;;;;;31.70;13.00;;;;;;;8.21;100.00;101951.91;4916999;29;20055;-74
2021/10/26 06:51:45;;;;;;;35.90;14.63;;;;;;;8.27;100.00;101939.47;4910280;29;20059;-73
2021/10/26 06:54:13;;;;;;;33.42;15.00;;;;;;;8.39;100.00;101947.38;4912117;29;21008;-75
2021/10/26 06:56:41;;;;;;;30.67;14.00;;;;;;;8.44;100.00;101942.97;4910715;29;20066;-72
2021/10/26 06:59:08;;;;;;;35.45;14.23;;;;;;;8.45;100.00;101944.75;4915395;29;20051;-73
2021/10/26 07:01:36;;;;;;;32.28;14.50;;;;;;;8.53;100.00;101940.25;4916872;29;20571;-73
2021/10/26 07:04:05;;;;;;;30.15;15.50;;;;;;;8.61;100.00;101945.53;4909152;29;20087;-73
2021/10/26 07:06:33;;;;;;;38.33;14.98;;;;;;;8.69;100.00;101937.50;4910438;29;20055;-73
2021/10/26 07:09:01;;;;;;;35.58;15.25;;;;;;;8.73;100.00;101948.09;4914680;29;20099;-73
2021/10/26 07:11:28;;;;;;;35.13;16.15;;;;;;;8.81;100.00;101942.72;4914169;29;20070;-72
2021/10/26 07:13:56;;;;;;;35.80;16.13;;;;;;;8.92;100.00;101947.97;4907388;29;20548;-72
2021/10/26 07:16:24;;;;;;;37.15;16.38;;;;;;;8.97;100.00;101949.72;4913543;29;20079;-74
2021/10/26 07:18:52;;;;;;;33.10;16.75;;;;;;;9.03;100.00;101951.44;4917534;29;20051;-73
2021/10/26 07:21:22;;;;;;;37.08;17.13;;;;;;;9.10;100.00;101950.50;4911695;29;20239;-73
2021/10/26 07:23:50;;;;;;;29.55;15.77;;;;;;;9.17;100.00;101953.97;4917019;29;21358;-73
2021/10/26 07:26:18;;;;;;;34.03;17.75;;;;;;;9.20;100.00;101951.31;4905776;29;20218;-73
2021/10/26 07:28:46;;;;;;;37.95;18.30;;;;;;;9.27;100.00;101953.00;4915023;29;20052;-73
2021/10/26 07:31:15;;;;;;;31.48;16.05;;;;;;;9.31;100.00;101960.09;4907023;29;20304;-72
2021/10/26 07:33:42;;;;;;;35.38;15.85;;;;;;;9.35;100.00;101963.59;4911811;29;20070;-71
2021/10/26 07:36:11;;;;;;;32.15;15.35;;;;;;;9.42;100.00;101972.44;4908961;29;20134;-71
2021/10/26 07:38:41;;;;;;;32.75;15.93;;;;;;;9.44;100.00;101974.16;4915773;29;20055;-71
2021/10/26 07:41:10;;;;;;;33.03;16.08;;;;;;;9.46;100.00;101971.50;4912161;29;20070;-71
2021/10/26 07:43:39;;;;;;;32.25;15.35;;;;;;;9.48;100.00;101975.94;4907776;29;20055;-71
2021/10/26 07:46:07;;;;;;;32.78;16.23;;;;;;;9.51;100.00;101986.53;4913384;29;20075;-69
2021/10/26 07:48:35;;;;;;;30.20;14.88;;;;;;;9.54;100.00;101974.97;4910467;29;20075;-69
2021/10/26 07:51:03;;;;;;;31.65;14.73;;;;;;;9.52;100.00;101974.97;4912645;29;20058;-69
2021/10/26 07:53:31;;;;;;;32.20;14.32;;;;;;;9.54;100.00;101973.19;4907001;29;20769;-70
2021/10/26 07:56:04;;;;;;;30.30;14.70;;;;;;;9.54;100.00;101978.50;4907107;29;20044;-70
2021/10/26 07:58:32;;;;;;;31.60;14.20;;;;;;;9.59;100.00;101981.13;4907745;29;20048;-71
2021/10/26 08:01:00;;;;;;;26.67;13.50;;;;;;;9.61;100.00;101976.66;4915865;29;20054;-71
2021/10/26 08:03:28;;;;;;;29.23;13.40;;;;;;;9.65;100.00;101972.19;4916472;29;20792;-71
2021/10/26 08:05:56;;;;;;;26.25;13.18;;;;;;;9.66;100.00;101969.50;4906549;29;20095;-71
2021/10/26 08:08:24;;;;;;;27.38;12.20;;;;;;;9.71;100.00;101981.00;4912721;29;20067;-73
2021/10/26 08:10:52;;;;;;;28.30;13.45;;;;;;;9.75;100.00;101976.53;4913715;29;20051;-73
2021/10/26 08:13:21;;;;;;;27.00;12.13;;;;;;;9.78;100.00;101973.84;4904263;29;20055;-70
2021/10/26 08:15:49;;;;;;;24.55;12.38;;;;;;;9.85;100.00;101971.97;4914562;29;20319;-70
2021/10/26 08:18:17;;;;;;;25.02;13.10;;;;;;;9.89;100.00;101974.59;4909374;29;20122;-69
2021/10/26 08:20:47;;;;;;;24.40;12.50;;;;;;;9.94;100.00;101982.53;4911706;29;20070;-69
2021/10/26 08:23:16;;;;;;;23.85;12.30;;;;;;;10.01;100.00;101992.25;4904976;29;20150;-69
2021/10/26 08:25:48;;;;;;;26.38;12.35;;;;;;;10.10;100.00;101993.94;4910119;29;20232;-69
2021/10/26 08:28:17;;;;;;;23.33;12.10;;;;;;;10.13;100.00;101983.22;4904993;29;20065;-69
2021/10/26 08:30:49;;;;;;;28.60;12.93;;;;;;;10.18;100.00;101978.72;4913650;29;20086;-72
2021/10/26 08:33:23;;;;;;;27.02;12.63;;;;;;;10.27;100.00;101981.25;4911398;29;20062;-71
2021/10/26 08:35:51;;;;;;;32.58;14.15;;;;;;;10.25;100.00;101982.19;4906399;29;20139;-71
2021/10/26 08:38:19;;;;;;;24.58;11.77;;;;;;;10.32;100.00;101978.56;4909437;29;20048;-71
2021/10/26 08:40:50;;;;;;;25.70;13.60;;;;;;;10.32;100.00;101985.66;4906492;29;20058;-71
2021/10/26 08:43:19;;;;;;;32.97;14.73;;;;;;;10.37;100.00;101983.81;4914496;29;20051;-70
2021/10/26 08:45:49;;;;;;;26.05;13.02;;;;;;;10.43;100.00;101984.63;4907878;29;23924;-71
2021/10/26 08:48:20;;;;;;;27.55;15.02;;;;;;;10.43;100.00;101976.63;4913203;29;20143;-70
2021/10/26 08:50:49;;;;;;;29.85;13.45;;;;;;;10.48;100.00;101981.91;4911324;29;20063;-70
2021/10/26 08:53:17;;;;;;;25.85;13.57;;;;;;;10.44;100.00;101978.41;4903165;29;20464;-70
2021/10/26 08:55:55;;;;;;;26.60;13.43;;;;;;;10.50;100.00;101968.56;4907223;29;20305;-69
2021/10/26 08:58:25;;;;;;;27.67;14.90;;;;;;;10.53;100.00;101965.84;4913473;29;20311;-70
2021/10/26 09:00:55;;;;;;;27.35;14.18;;;;;;;10.57;100.00;101973.81;4913718;29;20234;-70
2021/10/26 09:03:25;;;;;;;25.60;14.88;;;;;;;10.60;100.00;101972.84;4908369;29;20048;-71
2021/10/26 09:05:53;;;;;;;24.65;13.55;;;;;;;10.67;100.00;101970.97;4914263;29;20062;-70
2021/10/26 09:08:23;;;;;;;26.98;15.10;;;;;;;10.74;100.00;101976.19;4903756;29;20055;-71
2021/10/26 09:10:53;;;;;;;30.10;14.90;;;;;;;10.76;100.00;101974.41;4913716;29;20058;-70
2021/10/26 09:19:27;;;;;;;27.00;14.40;;;;;;;10.79;100.00;101970.78;4849251;29;20049;-70
2021/10/26 09:21:59;;;;;;;30.08;14.00;;;;;;;10.94;100.00;101975.03;4843404;29;20105;-70
2021/10/26 09:24:28;;;;;;;30.50;15.48;;;;;;;10.91;100.00;101977.75;4879202;29;20087;-71
2021/10/26 09:27:00;;;;;;;29.50;14.55;;;;;;;10.90;100.00;101981.34;4906025;29;20055;-71
2021/10/26 09:29:43;;;;;;;31.05;15.50;;;;;;;10.82;100.00;101989.44;4911993;29;20077;-71
2021/10/26 09:32:14;;;;;;;29.60;15.32;;;;;;;10.83;100.00;101985.88;4905388;29;20058;-70
2021/10/26 09:34:45;;;;;;;31.45;14.82;;;;;;;10.79;100.00;101986.81;4912980;29;20055;-70
2021/10/26 09:37:15;;;;;;;26.20;14.15;;;;;;;10.79;100.00;101992.16;4906898;29;20479;-69
2021/10/26 09:39:50;;;;;;;30.33;15.07;;;;;;;10.77;100.00;101994.84;4912438;29;20052;-69
2021/10/26 09:42:19;;;;;;;30.98;15.88;;;;;;;10.80;100.00;101989.47;4912949;29;20283;-69
2021/10/26 09:44:50;;;;;;;24.23;13.95;;;;;;;10.77;100.00;101986.84;4908251;29;20824;-69
2021/10/26 09:47:23;;;;;;;23.52;13.15;;;;;;;10.77;100.00;101976.16;4902235;29;20059;-70
2021/10/26 09:49:57;;;;;;;33.40;14.27;;;;;;;10.84;100.00;101972.50;4911658;29;20102;-70
2021/10/26 09:52:27;;;;;;;24.90;13.05;;;;;;;10.88;100.00;101975.09;4905989;29;20174;-68
2021/10/26 09:55:11;;;;;;;26.80;12.73;;;;;;;10.94;100.00;101970.56;4905373;29;20055;-68
2021/10/26 09:57:40;;;;;;;21.42;12.00;;;;;;;11.01;100.00;101971.34;4909756;29;20062;-70
2021/10/26 10:00:10;;;;;;;23.27;11.55;;;;;;;11.10;100.00;101956.97;4899258;29;20051;-69
2021/10/26 10:02:40;;;;;;;22.00;13.02;;;;;;;11.08;100.00;101961.44;4906966;29;20055;-69
2021/10/26 10:05:20;;;;;;;23.33;12.80;;;;;;;11.21;100.00;101965.69;4904855;29;20087;-69
2021/10/26 10:07:47;;;;;;;22.77;12.05;;;;;;;11.33;100.00;101952.09;4913130;29;20055;-69
2021/10/26 10:10:15;;;;;;;29.15;12.63;;;;;;;11.30;100.00;101964.66;4912353;28;20047;-69
2021/10/26 10:12:45;;;;;;;24.42;11.80;;;;;;;11.40;100.00;101966.25;4899445;29;20146;-68
2021/10/26 10:15:14;;;;;;;24.92;12.07;;;;;;;11.35;100.00;101966.31;4913466;29;20051;-68
2021/10/26 10:17:46;;;;;;;24.33;13.02;;;;;;;11.41;100.00;101965.34;4909220;29;20526;-69
2021/10/26 10:20:14;;;;;;;25.63;12.05;;;;;;;11.50;100.00;101967.84;4914716;29;20545;-69
2021/10/26 10:22:42;;;;;;;23.20;12.52;;;;;;;11.52;100.00;101967.81;4910790;29;20334;-69
2021/10/26 10:25:11;;;;;;;24.88;14.15;;;;;;;11.91;100.00;101960.00;4917815;29;20111;-69
2021/10/26 10:27:42;;;;;;;27.30;14.68;;;;;;;12.00;100.00;101964.28;4915767;29;20500;-69
2021/10/26 10:30:11;;;;;;;25.67;14.10;;;;;;;11.87;100.00;101953.78;4911518;29;20059;-69
2021/10/26 10:32:40;;;;;;;23.20;14.35;;;;;;;11.88;100.00;101958.22;4916613;29;20146;-69
2021/10/26 10:35:16;;;;;;;25.10;14.43;;;;;;;12.11;100.00;101962.28;4908904;29;20047;-72
2021/10/26 10:37:49;;;;;;;27.33;14.43;;;;;;;12.11;100.00;101962.28;4916899;29;20356;-73
2021/10/26 10:40:23;;;;;;;24.20;13.30;;;;;;;12.21;100.00;101961.16;4908388;29;20052;-73
2021/10/26 10:42:52;;;;;;;24.10;14.20;;;;;;;12.31;100.00;101969.88;4914037;29;20150;-72
2021/10/26 10:45:25;;;;;;;26.77;12.73;;;;;;;12.37;100.00;101963.50;4908273;29;20776;-72
2021/10/26 10:47:54;;;;;;;22.20;13.10;;;;;;;12.52;100.00;101966.72;4914629;29;20086;-73
2021/10/26 10:50:42;;;;;;;24.40;12.20;;;;;;;12.66;100.00;101963.72;4910262;29;20051;-73
2021/10/26 10:53:19;;;;;;;19.55;12.52;;;;;;;12.75;100.00;101951.91;4907729;29;20078;-71
2021/10/26 10:55:50;;;;;;;19.50;10.82;;;;;;;12.82;100.00;101958.00;4915028;29;20070;-71
2021/10/26 10:58:37;;;;;;;18.98;10.05;;;;;;;12.75;100.00;101951.91;4909294;29;20051;-71
2021/10/26 11:01:37;;;;;;;22.98;11.35;;;;;;;12.76;100.00;101960.84;4912631;29;20094;-71
2021/10/26 11:04:40;;;;;;;20.05;9.73;;;;;;;12.80;100.00;101960.72;4850939;29;20540;-71
2021/10/26 11:07:09;;;;;;;19.88;9.45;;;;;;;12.79;100.00;101968.81;4916149;29;20048;-71
2021/10/26 11:09:41;;;;;;;18.95;9.18;;;;;;;12.74;100.00;101968.06;4910552;29;20060;-71
2021/10/26 11:12:19;;;;;;;17.95;9.13;;;;;;;12.70;100.00;101967.22;4912168;29;20079;-72
2021/10/26 11:14:52;;;;;;;17.35;8.65;;;;;;;12.67;100.00;101964.63;4911248;29;20480;-71
2021/10/26 11:17:50;;;;;;;18.55;10.00;;;;;;;12.61;100.00;101970.97;4914812;29;20066;-71
2021/10/26 11:20:41;;;;;;;19.98;10.02;;;;;;;12.65;100.00;101959.31;4912793;29;20058;-71
2021/10/26 11:23:14;;;;;;;20.98;9.38;;;;;;;12.66;100.00;101957.50;4915324;29;20059;-70